sensor_id;sensor_type;location;lat;lon;timestamp;pressure;altitude;pressure_sealevel;temperature;humidity
73383;BME280;61600;48.126;11.542;2023-04-03T00:00:32;96149.97;;;6.14;67.51
73383;BME280;61600;48.126;11.542;2023-04-03T00:02:58;96150.09;;;6.19;66.22
73383;BME280;61600;48.126;11.542;2023-04-03T00:05:24;96153.84;;;6.18;66.52
73383;BME280;61600;48.126;11.542;2023-04-03T00:07:50;96148.66;;;6.17;65.93
73383;BME280;61600;48.126;11.542;2023-04-03T00:10:15;96149.81;;;6.04;68.21
73383;BME280;61600;48.126;11.542;2023-04-03T00:12:44;96153.00;;;6.18;67.72
73383;BME280;61600;48.126;11.542;2023-04-03T00:15:11;96154.38;;;5.87;67.75
73383;BME280;61600;48.126;11.542;2023-04-03T00:17:39;96154.88;;;6.00;66.74
73383;BME280;61600;48.126;11.542;2023-04-03T00:20:05;96154.72;;;6.07;66.39
73383;BME280;61600;48.126;11.542;2023-04-03T00:22:31;96153.72;;;5.96;67.32
73383;BME280;61600;48.126;11.542;2023-04-03T00:25:00;96154.41;;;6.20;66.30
73383;BME280;61600;48.126;11.542;2023-04-03T00:27:25;96162.88;;;5.95;65.59
73383;BME280;61600;48.126;11.542;2023-04-03T00:29:51;96164.88;;;6.00;66.62
73383;BME280;61600;48.126;11.542;2023-04-03T00:32:18;96156.94;;;6.10;66.36
73383;BME280;61600;48.126;11.542;2023-04-03T00:34:43;96155.63;;;6.13;66.58
73383;BME280;61600;48.126;11.542;2023-04-03T00:37:09;96161.66;;;6.03;66.13
73383;BME280;61600;48.126;11.542;2023-04-03T00:39:35;96164.63;;;6.01;65.71
73383;BME280;61600;48.126;11.542;2023-04-03T00:42:01;96155.78;;;6.06;65.70
73383;BME280;61600;48.126;11.542;2023-04-03T00:47:02;96158.63;;;5.99;66.64
73383;BME280;61600;48.126;11.542;2023-04-03T00:49:29;96153.84;;;6.01;66.69
73383;BME280;61600;48.126;11.542;2023-04-03T00:51:59;96153.84;;;6.18;65.82
73383;BME280;61600;48.126;11.542;2023-04-03T00:54:26;96156.59;;;6.07;66.11
73383;BME280;61600;48.126;11.542;2023-04-03T00:56:53;96155.88;;;6.11;66.68
73383;BME280;61600;48.126;11.542;2023-04-03T00:59:24;96159.25;;;6.01;65.91
73383;BME280;61600;48.126;11.542;2023-04-03T01:01:55;96158.69;;;5.88;66.84
73383;BME280;61600;48.126;11.542;2023-04-03T01:04:39;96155.78;;;6.06;67.39
73383;BME280;61600;48.126;11.542;2023-04-03T01:07:17;96160.63;;;6.04;65.91
73383;BME280;61600;48.126;11.542;2023-04-03T01:09:45;96157.16;;;5.92;65.96
73383;BME280;61600;48.126;11.542;2023-04-03T01:12:30;96160.13;;;5.90;65.37
73383;BME280;61600;48.126;11.542;2023-04-03T01:15:03;96157.31;;;6.02;66.34
73383;BME280;61600;48.126;11.542;2023-04-03T01:17:37;96159.84;;;5.92;66.69
73383;BME280;61600;48.126;11.542;2023-04-03T01:25:42;96157.19;;;6.09;66.45
73383;BME280;61600;48.126;11.542;2023-04-03T01:28:12;96164.53;;;5.96;65.62
73383;BME280;61600;48.126;11.542;2023-04-03T01:33:27;96164.47;;;6.08;66.43
73383;BME280;61600;48.126;11.542;2023-04-03T01:35:53;96163.38;;;5.92;65.53
73383;BME280;61600;48.126;11.542;2023-04-03T01:38:19;96166.56;;;5.89;66.22
73383;BME280;61600;48.126;11.542;2023-04-03T01:40:45;96173.53;;;6.02;66.78
73383;BME280;61600;48.126;11.542;2023-04-03T01:43:11;96169.81;;;5.91;67.20
73383;BME280;61600;48.126;11.542;2023-04-03T01:45:37;96168.63;;;5.99;66.45
73383;BME280;61600;48.126;11.542;2023-04-03T01:48:03;96164.31;;;5.98;66.04
73383;BME280;61600;48.126;11.542;2023-04-03T01:50:30;96167.66;;;6.05;66.01
73383;BME280;61600;48.126;11.542;2023-04-03T01:52:58;96169.44;;;5.99;66.85
73383;BME280;61600;48.126;11.542;2023-04-03T01:55:23;96162.81;;;6.07;65.78
73383;BME280;61600;48.126;11.542;2023-04-03T01:57:50;96155.13;;;5.99;65.61
73383;BME280;61600;48.126;11.542;2023-04-03T02:00:16;96159.09;;;5.80;66.65
73383;BME280;61600;48.126;11.542;2023-04-03T02:02:42;96167.06;;;5.86;66.42
73383;BME280;61600;48.126;11.542;2023-04-03T02:05:10;96157.59;;;6.17;65.21
73383;BME280;61600;48.126;11.542;2023-04-03T02:07:36;96156.53;;;6.01;65.50
73383;BME280;61600;48.126;11.542;2023-04-03T02:10:02;96156.72;;;6.12;65.21
73383;BME280;61600;48.126;11.542;2023-04-03T02:12:28;96161.28;;;6.28;64.98
73383;BME280;61600;48.126;11.542;2023-04-03T02:14:54;96152.09;;;6.45;64.93
73383;BME280;61600;48.126;11.542;2023-04-03T02:17:20;96160.63;;;6.21;65.33
73383;BME280;61600;48.126;11.542;2023-04-03T02:19:46;96149.41;;;6.29;65.34
73383;BME280;61600;48.126;11.542;2023-04-03T02:22:11;96160.28;;;6.00;65.53
73383;BME280;61600;48.126;11.542;2023-04-03T02:24:37;96163.38;;;5.92;65.60
73383;BME280;61600;48.126;11.542;2023-04-03T02:27:04;96154.88;;;6.00;65.29
73383;BME280;61600;48.126;11.542;2023-04-03T02:29:30;96158.25;;;6.08;64.67
73383;BME280;61600;48.126;11.542;2023-04-03T02:31:56;96150.09;;;6.19;64.57
73383;BME280;61600;48.126;11.542;2023-04-03T02:34:21;96149.16;;;6.14;64.33
73383;BME280;61600;48.126;11.542;2023-04-03T02:36:50;96149.00;;;6.20;64.34
73383;BME280;61600;48.126;11.542;2023-04-03T02:39:16;96149.00;;;6.20;64.68
73383;BME280;61600;48.126;11.542;2023-04-03T02:41:42;96148.63;;;5.83;63.61
73383;BME280;61600;48.126;11.542;2023-04-03T02:44:10;96148.50;;;5.90;64.90
73383;BME280;61600;48.126;11.542;2023-04-03T02:46:36;96149.75;;;6.16;64.44
73383;BME280;61600;48.126;11.542;2023-04-03T02:49:02;96151.53;;;6.27;63.77
73383;BME280;61600;48.126;11.542;2023-04-03T02:51:28;96149.50;;;6.17;63.29
73383;BME280;61600;48.126;11.542;2023-04-03T02:53:54;96149.66;;;6.11;64.79
73383;BME280;61600;48.126;11.542;2023-04-03T02:56:20;96153.00;;;6.18;63.64
73383;BME280;61600;48.126;11.542;2023-04-03T02:58:46;96159.78;;;6.03;65.07
73383;BME280;61600;48.126;11.542;2023-04-03T03:01:12;96152.47;;;6.16;63.38
73383;BME280;61600;48.126;11.542;2023-04-03T03:03:38;96154.81;;;6.12;62.57
73383;BME280;61600;48.126;11.542;2023-04-03T03:06:06;96165.91;;;5.99;62.99
73383;BME280;61600;48.126;11.542;2023-04-03T03:08:32;96156.47;;;5.85;63.13
73383;BME280;61600;48.126;11.542;2023-04-03T03:10:58;96156.66;;;5.95;62.85
73383;BME280;61600;48.126;11.542;2023-04-03T03:13:24;96164.03;;;5.99;62.46
73383;BME280;61600;48.126;11.542;2023-04-03T03:15:50;96161.19;;;6.06;61.87
73383;BME280;61600;48.126;11.542;2023-04-03T03:18:16;96159.56;;;6.05;62.23
73383;BME280;61600;48.126;11.542;2023-04-03T03:20:42;96160.13;;;6.07;62.78
73383;BME280;61600;48.126;11.542;2023-04-03T03:23:08;96162.34;;;6.10;62.73
73383;BME280;61600;48.126;11.542;2023-04-03T03:25:40;96155.13;;;5.99;62.32
73383;BME280;61600;48.126;11.542;2023-04-03T03:28:06;96161.19;;;6.06;61.81
73383;BME280;61600;48.126;11.542;2023-04-03T03:30:33;96167.56;;;6.17;62.09
73383;BME280;61600;48.126;11.542;2023-04-03T03:32:59;96153.00;;;6.18;62.31
73383;BME280;61600;48.126;11.542;2023-04-03T03:35:25;96157.53;;;6.12;61.85
73383;BME280;61600;48.126;11.542;2023-04-03T03:37:51;96153.25;;;6.16;62.44
73383;BME280;61600;48.126;11.542;2023-04-03T03:40:17;96163.72;;;6.13;62.34
73383;BME280;61600;48.126;11.542;2023-04-03T03:42:42;96164.19;;;5.93;62.36
73383;BME280;61600;48.126;11.542;2023-04-03T03:45:09;96162.88;;;5.95;62.42
73383;BME280;61600;48.126;11.542;2023-04-03T03:47:35;96161.19;;;5.78;62.64
73383;BME280;61600;48.126;11.542;2023-04-03T03:50:02;96161.78;;;5.80;63.17
73383;BME280;61600;48.126;11.542;2023-04-03T03:52:28;96162.81;;;5.90;62.40
73383;BME280;61600;48.126;11.542;2023-04-03T03:54:55;96161.84;;;5.96;62.11
73383;BME280;61600;48.126;11.542;2023-04-03T03:57:21;96155.78;;;6.06;62.09
73383;BME280;61600;48.126;11.542;2023-04-03T03:59:47;96154.22;;;6.10;62.17
73383;BME280;61600;48.126;11.542;2023-04-03T04:02:14;96153.84;;;6.01;62.12
73383;BME280;61600;48.126;11.542;2023-04-03T04:04:40;96156.53;;;6.01;62.12
73383;BME280;61600;48.126;11.542;2023-04-03T04:07:06;96157.91;;;6.04;61.78
73383;BME280;61600;48.126;11.542;2023-04-03T04:09:32;96156.88;;;6.05;61.97
73383;BME280;61600;48.126;11.542;2023-04-03T04:11:58;96151.78;;;6.09;61.93
73383;BME280;61600;48.126;11.542;2023-04-03T04:14:23;96156.44;;;6.13;62.12
73383;BME280;61600;48.126;11.542;2023-04-03T04:16:49;96157.09;;;6.20;61.83
73383;BME280;61600;48.126;11.542;2023-04-03T04:19:15;96164.06;;;6.16;61.10
73383;BME280;61600;48.126;11.542;2023-04-03T04:21:41;96161.28;;;5.94;61.68
73383;BME280;61600;48.126;11.542;2023-04-03T04:24:07;96162.34;;;6.10;62.05
73383;BME280;61600;48.126;11.542;2023-04-03T04:26:33;96168.06;;;6.14;61.74
73383;BME280;61600;48.126;11.542;2023-04-03T04:28:59;96161.28;;;6.11;61.87
73383;BME280;61600;48.126;11.542;2023-04-03T04:31:25;96168.47;;;6.06;61.24
73383;BME280;61600;48.126;11.542;2023-04-03T04:33:52;96164.19;;;5.93;62.10
73383;BME280;61600;48.126;11.542;2023-04-03T04:36:18;96173.69;;;5.95;62.05
73383;BME280;61600;48.126;11.542;2023-04-03T04:38:45;96169.78;;;6.03;61.65
73383;BME280;61600;48.126;11.542;2023-04-03T04:41:11;96173.84;;;6.06;62.09
73383;BME280;61600;48.126;11.542;2023-04-03T04:43:37;96180.50;;;5.98;62.07
73383;BME280;61600;48.126;11.542;2023-04-03T04:46:08;96177.59;;;5.88;61.82
73383;BME280;61600;48.126;11.542;2023-04-03T04:48:35;96175.34;;;5.96;61.44
73383;BME280;61600;48.126;11.542;2023-04-03T04:51:02;96178.84;;;5.97;61.50
73383;BME280;61600;48.126;11.542;2023-04-03T04:53:27;96173.28;;;6.03;61.83
73383;BME280;61600;48.126;11.542;2023-04-03T04:55:53;96175.00;;;5.93;61.68
73383;BME280;61600;48.126;11.542;2023-04-03T04:58:19;96172.53;;;5.91;61.86
73383;BME280;61600;48.126;11.542;2023-04-03T05:00:46;96171.16;;;6.06;61.73
73383;BME280;61600;48.126;11.542;2023-04-03T05:03:12;96176.16;;;6.14;61.26
73383;BME280;61600;48.126;11.542;2023-04-03T05:05:37;96173.69;;;5.95;61.98
73383;BME280;61600;48.126;11.542;2023-04-03T05:08:04;96175.28;;;6.08;61.70
73383;BME280;61600;48.126;11.542;2023-04-03T05:10:30;96176.66;;;6.11;60.93
73383;BME280;61600;48.126;11.542;2023-04-03T05:12:56;96189.34;;;6.27;60.31
73383;BME280;61600;48.126;11.542;2023-04-03T05:15:23;96184.75;;;6.44;60.28
73383;BME280;61600;48.126;11.542;2023-04-03T05:17:49;96182.72;;;6.01;61.27
73383;BME280;61600;48.126;11.542;2023-04-03T05:20:15;96184.03;;;6.15;61.02
73383;BME280;61600;48.126;11.542;2023-04-03T05:22:41;96190.81;;;6.18;60.82
73383;BME280;61600;48.126;11.542;2023-04-03T05:25:07;96189.84;;;6.07;61.13
73383;BME280;61600;48.126;11.542;2023-04-03T05:27:33;96185.44;;;6.18;61.36
73383;BME280;61600;48.126;11.542;2023-04-03T05:29:59;96187.69;;;6.09;60.32
73383;BME280;61600;48.126;11.542;2023-04-03T05:32:26;96187.53;;;5.99;61.35
73383;BME280;61600;48.126;11.542;2023-04-03T05:34:53;96190.41;;;6.09;60.90
73383;BME280;61600;48.126;11.542;2023-04-03T05:37:19;96189.34;;;6.10;61.19
73383;BME280;61600;48.126;11.542;2023-04-03T05:39:45;96196.78;;;6.03;59.68
73383;BME280;61600;48.126;11.542;2023-04-03T05:42:12;96192.69;;;6.17;60.40
73383;BME280;61600;48.126;11.542;2023-04-03T05:44:38;96183.88;;;6.05;60.40
73383;BME280;61600;48.126;11.542;2023-04-03T05:47:04;96184.66;;;6.06;60.37
73383;BME280;61600;48.126;11.542;2023-04-03T05:49:30;96190.16;;;6.11;60.91
73383;BME280;61600;48.126;11.542;2023-04-03T05:51:56;96190.59;;;6.19;61.11
73383;BME280;61600;48.126;11.542;2023-04-03T05:54:27;96189.13;;;6.28;60.69
73383;BME280;61600;48.126;11.542;2023-04-03T05:56:54;96181.56;;;6.30;59.13
73383;BME280;61600;48.126;11.542;2023-04-03T05:59:20;96191.81;;;6.28;59.79
73383;BME280;61600;48.126;11.542;2023-04-03T06:01:47;96191.00;;;6.11;60.67
73383;BME280;61600;48.126;11.542;2023-04-03T06:04:13;96196.97;;;6.30;59.62
73383;BME280;61600;48.126;11.542;2023-04-03T06:06:54;96199.66;;;6.30;60.27
73383;BME280;61600;48.126;11.542;2023-04-03T06:09:23;96194.78;;;6.43;59.58
73383;BME280;61600;48.126;11.542;2023-04-03T06:11:49;96196.06;;;6.41;59.19
73383;BME280;61600;48.126;11.542;2023-04-03T06:14:15;96206.53;;;6.37;60.71
73383;BME280;61600;48.126;11.542;2023-04-03T06:16:41;96195.00;;;6.42;59.27
73383;BME280;61600;48.126;11.542;2023-04-03T06:19:07;96198.47;;;6.54;59.85
73383;BME280;61600;48.126;11.542;2023-04-03T06:21:34;96204.34;;;6.34;59.17
73383;BME280;61600;48.126;11.542;2023-04-03T06:24:02;96199.34;;;6.43;59.07
73383;BME280;61600;48.126;11.542;2023-04-03T06:26:28;96197.56;;;6.32;59.60
73383;BME280;61600;48.126;11.542;2023-04-03T06:28:54;96208.25;;;6.27;59.15
73383;BME280;61600;48.126;11.542;2023-04-03T06:31:20;96196.88;;;6.41;58.76
73383;BME280;61600;48.126;11.542;2023-04-03T06:33:46;96195.00;;;6.59;58.83
73383;BME280;61600;48.126;11.542;2023-04-03T06:36:11;96199.78;;;6.68;58.76
73383;BME280;61600;48.126;11.542;2023-04-03T06:38:38;96208.53;;;6.75;58.86
73383;BME280;61600;48.126;11.542;2023-04-03T06:41:04;96201.22;;;6.76;58.13
73383;BME280;61600;48.126;11.542;2023-04-03T06:43:29;96203.44;;;6.62;58.61
73383;BME280;61600;48.126;11.542;2023-04-03T06:45:57;96215.97;;;6.68;58.32
73383;BME280;61600;48.126;11.542;2023-04-03T06:48:23;96215.72;;;6.70;56.54
73383;BME280;61600;48.126;11.542;2023-04-03T06:50:48;96212.03;;;6.76;57.05
73383;BME280;61600;48.126;11.542;2023-04-03T06:53:14;96204.56;;;6.99;57.02
73383;BME280;61600;48.126;11.542;2023-04-03T06:55:40;96208.72;;;6.90;56.41
73383;BME280;61600;48.126;11.542;2023-04-03T06:58:06;96208.41;;;7.03;56.31
73383;BME280;61600;48.126;11.542;2023-04-03T07:00:32;96210.53;;;7.01;55.87
73383;BME280;61600;48.126;11.542;2023-04-03T07:02:59;96214.91;;;7.24;55.83
73383;BME280;61600;48.126;11.542;2023-04-03T07:05:25;96213.81;;;7.25;55.34
73383;BME280;61600;48.126;11.542;2023-04-03T07:07:52;96217.03;;;7.22;56.07
73383;BME280;61600;48.126;11.542;2023-04-03T07:10:18;96217.56;;;7.41;54.59
73383;BME280;61600;48.126;11.542;2023-04-03T07:12:44;96223.06;;;7.29;55.68
73383;BME280;61600;48.126;11.542;2023-04-03T07:15:10;96222.78;;;7.47;54.44
73383;BME280;61600;48.126;11.542;2023-04-03T07:17:36;96217.47;;;7.36;54.91
73383;BME280;61600;48.126;11.542;2023-04-03T07:20:02;96227.38;;;7.09;55.83
73383;BME280;61600;48.126;11.542;2023-04-03T07:22:29;96230.19;;;7.35;55.27
73383;BME280;61600;48.126;11.542;2023-04-03T07:24:55;96228.78;;;7.11;56.50
73383;BME280;61600;48.126;11.542;2023-04-03T07:27:21;96231.84;;;7.58;55.02
73383;BME280;61600;48.126;11.542;2023-04-03T07:29:46;96227.13;;;7.48;55.28
73383;BME280;61600;48.126;11.542;2023-04-03T07:32:14;96237.66;;;7.67;55.19
73383;BME280;61600;48.126;11.542;2023-04-03T07:34:41;96243.81;;;7.62;55.23
73383;BME280;61600;48.126;11.542;2023-04-03T07:37:26;96243.31;;;7.65;54.77
73383;BME280;61600;48.126;11.542;2023-04-03T07:39:52;96246.94;;;7.76;54.63
73383;BME280;61600;48.126;11.542;2023-04-03T07:42:18;96246.00;;;7.65;53.58
73383;BME280;61600;48.126;11.542;2023-04-03T07:44:43;96255.91;;;7.54;54.37
73383;BME280;61600;48.126;11.542;2023-04-03T07:47:09;96244.63;;;7.63;53.74
73383;BME280;61600;48.126;11.542;2023-04-03T07:49:35;96253.69;;;7.51;52.56
73383;BME280;61600;48.126;11.542;2023-04-03T07:52:05;96253.19;;;7.54;54.31
73383;BME280;61600;48.126;11.542;2023-04-03T07:54:32;96258.78;;;7.48;55.26
73383;BME280;61600;48.126;11.542;2023-04-03T07:56:59;96260.91;;;7.46;55.53
73383;BME280;61600;48.126;11.542;2023-04-03T07:59:24;96263.44;;;7.31;55.49
73383;BME280;61600;48.126;11.542;2023-04-03T08:01:50;96269.53;;;7.21;55.95
73383;BME280;61600;48.126;11.542;2023-04-03T08:04:16;96262.59;;;7.30;56.55
73383;BME280;61600;48.126;11.542;2023-04-03T08:06:42;96257.69;;;7.27;56.27
73383;BME280;61600;48.126;11.542;2023-04-03T08:09:08;96266.63;;;7.28;56.14
73383;BME280;61600;48.126;11.542;2023-04-03T08:11:33;96261.50;;;7.10;56.09
73383;BME280;61600;48.126;11.542;2023-04-03T08:13:59;96269.78;;;7.41;54.85
73383;BME280;61600;48.126;11.542;2023-04-03T08:16:25;96271.44;;;7.64;54.81
73383;BME280;61600;48.126;11.542;2023-04-03T08:18:53;96261.53;;;7.53;55.02
73383;BME280;61600;48.126;11.542;2023-04-03T08:21:19;96268.50;;;7.66;55.08
73383;BME280;61600;48.126;11.542;2023-04-03T08:23:48;96273.09;;;7.65;54.94
73383;BME280;61600;48.126;11.542;2023-04-03T08:26:17;96271.00;;;7.72;55.23
73383;BME280;61600;48.126;11.542;2023-04-03T08:28:42;96271.72;;;7.63;54.63
73383;BME280;61600;48.126;11.542;2023-04-03T08:31:12;96266.72;;;7.54;55.66
73383;BME280;61600;48.126;11.542;2023-04-03T08:33:39;96273.16;;;7.48;54.88
73383;BME280;61600;48.126;11.542;2023-04-03T08:36:14;96272.03;;;7.66;54.40
73383;BME280;61600;48.126;11.542;2023-04-03T08:38:41;96267.56;;;7.77;54.11
73383;BME280;61600;48.126;11.542;2023-04-03T08:41:15;96271.59;;;7.36;56.11
73383;BME280;61600;48.126;11.542;2023-04-03T08:43:53;96276.66;;;7.71;54.46
73383;BME280;61600;48.126;11.542;2023-04-03T08:46:22;96272.25;;;8.08;53.18
73383;BME280;61600;48.126;11.542;2023-04-03T08:48:51;96268.22;;;8.11;53.21
73383;BME280;61600;48.126;11.542;2023-04-03T08:51:20;96275.28;;;8.12;51.72
73383;BME280;61600;48.126;11.542;2023-04-03T08:53:58;96271.09;;;8.26;51.17
73383;BME280;61600;48.126;11.542;2023-04-03T08:56:26;96266.31;;;8.33;50.82
73383;BME280;61600;48.126;11.542;2023-04-03T08:59:00;96272.56;;;8.12;51.60
73383;BME280;61600;48.126;11.542;2023-04-03T09:01:37;96270.09;;;8.32;51.52
73383;BME280;61600;48.126;11.542;2023-04-03T09:04:11;96267.53;;;8.47;52.26
73383;BME280;61600;48.126;11.542;2023-04-03T09:06:38;96278.09;;;8.43;51.96
73383;BME280;61600;48.126;11.542;2023-04-03T09:09:31;96283.19;;;8.40;51.01
73383;BME280;61600;48.126;11.542;2023-04-03T09:12:19;96280.53;;;8.45;50.81
73383;BME280;61600;48.126;11.542;2023-04-03T09:15:04;96285.38;;;8.70;50.02
73383;BME280;61600;48.126;11.542;2023-04-03T09:20:32;96276.53;;;8.79;50.90
73383;BME280;61600;48.126;11.542;2023-04-03T09:23:00;96275.19;;;8.87;50.79
73383;BME280;61600;48.126;11.542;2023-04-03T09:25:32;96273.44;;;9.02;50.88
73383;BME280;61600;48.126;11.542;2023-04-03T09:28:00;96278.34;;;8.74;51.53
73383;BME280;61600;48.126;11.542;2023-04-03T09:30:27;96267.63;;;8.57;52.27
73383;BME280;61600;48.126;11.542;2023-04-03T09:32:55;96268.50;;;8.94;51.34
73383;BME280;61600;48.126;11.542;2023-04-03T09:37:52;96262.34;;;9.04;50.47
73383;BME280;61600;48.126;11.542;2023-04-03T09:42:52;96262.84;;;9.01;48.89
73383;BME280;61600;48.126;11.542;2023-04-03T09:45:25;96267.50;;;9.06;49.47
73383;BME280;61600;48.126;11.542;2023-04-03T09:50:54;96265.34;;;9.08;50.31
73383;BME280;61600;48.126;11.542;2023-04-03T09:53:36;96259.75;;;9.24;48.56
73383;BME280;61600;48.126;11.542;2023-04-03T09:58:49;96268.09;;;8.81;49.65
73383;BME280;61600;48.126;11.542;2023-04-03T10:01:30;96269.97;;;8.75;50.61
73383;BME280;61600;48.126;11.542;2023-04-03T10:04:15;96274.31;;;8.76;51.04
73383;BME280;61600;48.126;11.542;2023-04-03T10:06:54;96266.28;;;8.86;50.68
73383;BME280;61600;48.126;11.542;2023-04-03T10:12:05;96260.78;;;8.49;50.47
73383;BME280;61600;48.126;11.542;2023-04-03T10:14:39;96262.94;;;8.47;49.80
73383;BME280;61600;48.126;11.542;2023-04-03T10:17:13;96264.72;;;8.64;49.46
73383;BME280;61600;48.126;11.542;2023-04-03T10:19:53;96264.19;;;8.67;49.76
73383;BME280;61600;48.126;11.542;2023-04-03T10:28:01;96263.44;;;8.44;52.03
73383;BME280;61600;48.126;11.542;2023-04-03T10:30:42;96254.03;;;8.52;51.63
73383;BME280;61600;48.126;11.542;2023-04-03T10:33:33;96262.44;;;8.50;52.32
73383;BME280;61600;48.126;11.542;2023-04-03T10:36:29;96264.78;;;8.69;51.81
73383;BME280;61600;48.126;11.542;2023-04-03T10:39:20;96259.19;;;8.53;52.06
73383;BME280;61600;48.126;11.542;2023-04-03T10:47:22;96274.22;;;8.13;51.71
73383;BME280;61600;48.126;11.542;2023-04-03T10:50:00;96277.28;;;7.99;51.33
73383;BME280;61600;48.126;11.542;2023-04-03T10:52:54;96277.38;;;7.83;51.94
73383;BME280;61600;48.126;11.542;2023-04-03T10:57:54;96270.25;;;7.77;53.53
73383;BME280;61600;48.126;11.542;2023-04-03T11:00:33;96274.47;;;7.89;53.78
73383;BME280;61600;48.126;11.542;2023-04-03T11:03:10;96272.22;;;7.60;54.64
73383;BME280;61600;48.126;11.542;2023-04-03T11:05:44;96284.97;;;7.64;55.54
73383;BME280;61600;48.126;11.542;2023-04-03T11:10:49;96282.28;;;7.26;57.96
73383;BME280;61600;48.126;11.542;2023-04-03T11:13:28;96277.31;;;7.39;57.45
73383;BME280;61600;48.126;11.542;2023-04-03T11:15:58;96279.38;;;7.49;57.85
73383;BME280;61600;48.126;11.542;2023-04-03T11:18:33;96280.84;;;7.40;57.54
73383;BME280;61600;48.126;11.542;2023-04-03T11:21:12;96273.16;;;7.48;57.03
73383;BME280;61600;48.126;11.542;2023-04-03T11:23:42;96270.44;;;7.48;56.21
73383;BME280;61600;48.126;11.542;2023-04-03T11:26:13;96273.78;;;7.56;56.85
73383;BME280;61600;48.126;11.542;2023-04-03T11:28:41;96269.34;;;7.49;54.80
73383;BME280;61600;48.126;11.542;2023-04-03T11:34:03;96258.28;;;7.73;53.79
73383;BME280;61600;48.126;11.542;2023-04-03T11:36:44;96262.25;;;7.87;53.34
73383;BME280;61600;48.126;11.542;2023-04-03T11:39:34;96256.25;;;8.28;50.60
73383;BME280;61600;48.126;11.542;2023-04-03T11:44:45;96248.13;;;8.60;49.42
73383;BME280;61600;48.126;11.542;2023-04-03T11:47:43;96245.03;;;8.46;49.56
73383;BME280;61600;48.126;11.542;2023-04-03T11:50:52;96249.94;;;8.81;49.60
73383;BME280;61600;48.126;11.542;2023-04-03T11:58:25;96236.34;;;9.13;45.26
73383;BME280;61600;48.126;11.542;2023-04-03T12:01:03;96240.47;;;9.21;45.51
73383;BME280;61600;48.126;11.542;2023-04-03T12:03:29;96232.63;;;9.24;45.39
73383;BME280;61600;48.126;11.542;2023-04-03T12:19:25;96219.41;;;9.43;42.74
73383;BME280;61600;48.126;11.542;2023-04-03T12:24:29;96222.53;;;9.67;42.04
73383;BME280;61600;48.126;11.542;2023-04-03T12:32:10;96220.09;;;9.75;41.86
73383;BME280;61600;48.126;11.542;2023-04-03T12:43:03;96213.44;;;9.41;41.80
73383;BME280;61600;48.126;11.542;2023-04-03T12:45:45;96215.44;;;9.66;41.20
73383;BME280;61600;48.126;11.542;2023-04-03T12:48:18;96206.72;;;9.59;41.01
73383;BME280;61600;48.126;11.542;2023-04-03T12:50:48;96206.16;;;9.51;41.46
73383;BME280;61600;48.126;11.542;2023-04-03T12:53:16;96205.69;;;9.75;40.53
73383;BME280;61600;48.126;11.542;2023-04-03T12:55:43;96204.09;;;9.74;40.09
73383;BME280;61600;48.126;11.542;2023-04-03T12:58:28;96203.03;;;9.85;40.91
73383;BME280;61600;48.126;11.542;2023-04-03T13:01:02;96200.88;;;9.97;40.23
73383;BME280;61600;48.126;11.542;2023-04-03T13:03:29;96199.22;;;9.86;40.59
73383;BME280;61600;48.126;11.542;2023-04-03T13:06:01;96193.25;;;9.89;40.78
73383;BME280;61600;48.126;11.542;2023-04-03T13:08:29;96197.59;;;9.90;40.26
73383;BME280;61600;48.126;11.542;2023-04-03T13:10:58;96198.66;;;9.79;40.24
73383;BME280;61600;48.126;11.542;2023-04-03T13:13:24;96193.00;;;9.90;40.03
73383;BME280;61600;48.126;11.542;2023-04-03T13:15:52;96192.19;;;9.85;39.35
73383;BME280;61600;48.126;11.542;2023-04-03T13:18:30;96193.00;;;9.90;40.39
73383;BME280;61600;48.126;11.542;2023-04-03T13:21:08;96189.78;;;10.14;39.76
73383;BME280;61600;48.126;11.542;2023-04-03T13:23:40;96193.41;;;10.34;38.92
73383;BME280;61600;48.126;11.542;2023-04-03T13:26:08;96181.41;;;10.96;37.43
73383;BME280;61600;48.126;11.542;2023-04-03T13:28:35;96179.16;;;11.33;36.11
73383;BME280;61600;48.126;11.542;2023-04-03T13:31:03;96177.81;;;11.36;36.49
73383;BME280;61600;48.126;11.542;2023-04-03T13:33:32;96162.91;;;11.82;35.55
73383;BME280;61600;48.126;11.542;2023-04-03T13:36:23;96158.16;;;12.47;34.58
73383;BME280;61600;48.126;11.542;2023-04-03T13:41:40;96172.66;;;11.19;36.17
73383;BME280;61600;48.126;11.542;2023-04-03T13:47:15;96185.47;;;10.28;36.89
73383;BME280;61600;48.126;11.542;2023-04-03T13:49:58;96182.22;;;10.21;36.83
73383;BME280;61600;48.126;11.542;2023-04-03T13:52:38;96185.06;;;9.79;37.37
73383;BME280;61600;48.126;11.542;2023-04-03T13:57:53;96187.53;;;9.80;39.10
73383;BME280;61600;48.126;11.542;2023-04-03T14:00:35;96189.09;;;9.61;39.13
73383;BME280;61600;48.126;11.542;2023-04-03T14:05:54;96180.06;;;9.50;39.17
73383;BME280;61600;48.126;11.542;2023-04-03T14:08:20;96174.47;;;9.67;38.59
73383;BME280;61600;48.126;11.542;2023-04-03T14:11:08;96177.09;;;9.57;38.81
73383;BME280;61600;48.126;11.542;2023-04-03T14:13:35;96175.19;;;9.47;39.21
73383;BME280;61600;48.126;11.542;2023-04-03T14:16:01;96178.34;;;9.29;39.24
73383;BME280;61600;48.126;11.542;2023-04-03T14:18:35;96171.84;;;9.30;38.82
73383;BME280;61600;48.126;11.542;2023-04-03T14:21:02;96172.47;;;9.42;38.74
73383;BME280;61600;48.126;11.542;2023-04-03T14:23:28;96161.16;;;9.76;38.03
73383;BME280;61600;48.126;11.542;2023-04-03T14:25:54;96160.13;;;9.97;38.19
73383;BME280;61600;48.126;11.542;2023-04-03T14:28:22;96161.25;;;10.11;37.44
73383;BME280;61600;48.126;11.542;2023-04-03T14:30:50;96149.31;;;10.78;35.66
73383;BME280;61600;48.126;11.542;2023-04-03T14:33:18;96139.69;;;11.31;35.54
73383;BME280;61600;48.126;11.542;2023-04-03T14:35:45;96136.91;;;12.00;34.08
73383;BME280;61600;48.126;11.542;2023-04-03T14:38:25;96139.28;;;12.56;33.39
73383;BME280;61600;48.126;11.542;2023-04-03T14:40:52;96137.66;;;12.83;32.86
73383;BME280;61600;48.126;11.542;2023-04-03T14:43:18;96137.66;;;12.11;32.70
73383;BME280;61600;48.126;11.542;2023-04-03T14:45:46;96137.91;;;12.19;32.86